METAR Data
IDs: Format: Raw Decoded Include TAF

Data at: 2042 UTC 19 May 2019

PAIG 191956Z AUTO 03008KT 10SM BKN049 09/06 A2966 RMK AO2 SLP053 T00940061 $
PAIG 191856Z AUTO 03005KT 10SM BKN047 OVC095 07/07 A2966 RMK AO2 SLP056 T00720067 $
PAIG 191756Z AUTO 03005KT 10SM FEW037 BKN046 07/07 A2967 RMK AO2 SLP058 60001 T00670067 10067 20050 56012 $
PAIG 191656Z AUTO 36005KT 10SM SCT044 BKN110 06/06 A2968 RMK AO2 RAE16 SLP062 P0000 T00560056 $
PAIG 191556Z AUTO 04006KT 10SM -RA OVC060 06/06 A2969 RMK AO2 SLP067 P0000 T00560056 $
PAIG 191456Z AUTO 06006KT 10SM -RA BKN043 OVC050 05/05 A2971 RMK AO2 RAB19 SLP070 P0001 60001 T00500050 58009 $
PAIG 191356Z AUTO 02004KT 10SM BKN055 OVC070 06/06 A2972 RMK AO2 RAE46 SLP075 P0000 T00560056 $
PAIG 191256Z AUTO 01005KT 10SM -RA BKN060 BKN075 OVC090 06/06 A2972 RMK AO2 SLP075 P0000 T00610061 $
PAIG 191156Z AUTO 03006KT 10SM -RA BKN055 OVC070 06/06 A2973 RMK AO2 RAB38 SLP079 P0000 60000 T00560056 10083 20056 58007 $
PAIG 191056Z AUTO 36004KT 10SM CLR 06/06 A2974 RMK AO2 SLP082 T00560056 $
PAIG 190956Z AUTO 36004KT 10SM CLR 06/06 A2975 RMK AO2 SLP085 T00560056 $
PAIG 190856Z AUTO 04005KT 10SM CLR 06/04 A2975 RMK AO2 SLP086 T00610044 401110044 50002 $
PAIG 190756Z AUTO 05007KT 10SM CLR 06/03 A2975 RMK AO2 SLP087 T00610028 $
PAIG 190656Z AUTO 06004KT 10SM BKN110 07/03 A2975 RMK AO2 SLP086 T00720028 $
PAIG 190556Z AUTO 06010KT 10SM FEW110 08/03 A2975 RMK AO2 SLP085 T00830033 10111 20083 50001 $
PAIG 190456Z AUTO 05013G20KT 10SM SCT110 10/03 A2975 RMK AO2 SLP085 T01000033 $
PAIG 190356Z AUTO 05010KT 10SM CLR 11/02 A2975 RMK AO2 SLP085 T01060022 $
PAIG 190256Z AUTO 04014G18KT 10SM CLR 10/04 A2975 RMK AO2 SLP084 T01000044 56005 $
PAIG 190156Z AUTO 03013KT 10SM CLR 09/05 A2975 RMK AO2 SLP086 T00940050 $
PAIG 190056Z AUTO 03013KT 10SM OVC060 09/06 A2975 RMK AO2 SLP087 T00940056 $
PAIG 182356Z AUTO 03012KT 10SM BKN060 08/05 A2976 RMK AO2 SLP089 T00830050 10094 20067 56002 $
PAIG 182256Z AUTO 03012KT 10SM BKN055 09/06 A2976 RMK AO2 SLP090 T00890056 $
PAIG 182156Z AUTO 02014G19KT 10SM OVC060 08/06 A2976 RMK AO2 SLP090 T00830056 $
PAIG 182056Z AUTO 03011KT 10SM OVC055 08/06 A2977 RMK AO2 SLP092 T00830056 50002 $
PAIG 181956Z AUTO 03014KT 10SM BKN047 08/06 A2977 RMK AO2 SLP091 T00780061 $
PAIG 181856Z AUTO 03012KT 10SM CLR 07/07 A2977 RMK AO2 SLP092 T00720067 $
PAIG 181756Z AUTO 04011KT 10SM CLR 07/07 A2976 RMK AO2 SLP090 60000 T00720067 10072 20044 53004 $
PAIG 181656Z AUTO 04008KT 10SM CLR 07/06 A2975 RMK AO2 SLP087 T00720061 $
PAIG 181556Z AUTO 04010KT 10SM CLR 06/06 A2975 RMK AO2 SLP086 T00610056 $
PAIG 181456Z AUTO 06007KT 10SM CLR 05/05 A2975 RMK AO2 SLP086 60000 T00500050 52007 $
PAIG 181356Z AUTO 05008KT 10SM CLR 04/04 A2974 RMK AO2 SLP083 T00440044 $
PAIG 181256Z AUTO 05008KT 10SM SCT038 05/05 A2974 RMK AO2 RAE24 SLP081 P0000 T00500050 $
PAIG 181156Z AUTO 05007KT 10SM -RA BKN037 OVC047 06/06 A2973 RMK AO2 RAB39 SLP079 P0000 60000 T00560056 10094 20044 51010 $
PAIG 181056Z AUTO 05005KT 10SM OVC041 06/04 A2972 RMK AO2 SLP076 T00610044 $
PAIG 180956Z AUTO 04005KT 10SM BKN045 OVC055 06/04 A2971 RMK AO2 SLP073 T00610044 $
PAIG 180856Z AUTO 05004KT 10SM SCT060 05/05 A2970 RMK AO2 SLP069 T00500050 401280017 53016 $